sensor_id;sensor_type;location;lat;lon;timestamp;P1;durP1;ratioP1;P2;durP2;ratioP2
323;SDS011;149;51.094;17.002;2022-08-19T00:01:48;14.70;;;8.10;;
323;SDS011;149;51.094;17.002;2022-08-19T00:04:21;10.73;;;9.03;;
323;SDS011;149;51.094;17.002;2022-08-19T00:06:55;8.60;;;7.80;;
323;SDS011;149;51.094;17.002;2022-08-19T00:09:22;9.53;;;8.73;;
323;SDS011;149;51.094;17.002;2022-08-19T00:11:50;11.10;;;9.70;;
323;SDS011;149;51.094;17.002;2022-08-19T00:14:18;7.87;;;7.20;;
323;SDS011;149;51.094;17.002;2022-08-19T00:16:47;8.57;;;7.70;;
323;SDS011;149;51.094;17.002;2022-08-19T00:19:15;10.23;;;9.33;;
323;SDS011;149;51.094;17.002;2022-08-19T00:21:43;8.63;;;7.70;;
323;SDS011;149;51.094;17.002;2022-08-19T00:24:10;8.90;;;8.13;;
323;SDS011;149;51.094;17.002;2022-08-19T00:26:39;9.90;;;9.03;;
323;SDS011;149;51.094;17.002;2022-08-19T00:29:08;8.80;;;8.00;;
323;SDS011;149;51.094;17.002;2022-08-19T00:31:37;9.20;;;8.30;;
323;SDS011;149;51.094;17.002;2022-08-19T00:34:04;9.47;;;8.67;;
323;SDS011;149;51.094;17.002;2022-08-19T00:36:31;10.37;;;9.40;;
323;SDS011;149;51.094;17.002;2022-08-19T00:39:04;9.30;;;8.40;;
323;SDS011;149;51.094;17.002;2022-08-19T00:41:32;10.20;;;9.10;;
323;SDS011;149;51.094;17.002;2022-08-19T00:44:10;9.67;;;8.60;;
323;SDS011;149;51.094;17.002;2022-08-19T00:46:53;9.40;;;8.40;;
323;SDS011;149;51.094;17.002;2022-08-19T00:49:45;9.43;;;8.63;;
323;SDS011;149;51.094;17.002;2022-08-19T00:52:24;9.43;;;8.40;;
323;SDS011;149;51.094;17.002;2022-08-19T00:54:55;8.63;;;7.83;;
323;SDS011;149;51.094;17.002;2022-08-19T00:57:26;9.17;;;8.43;;
323;SDS011;149;51.094;17.002;2022-08-19T00:59:59;8.77;;;8.03;;
323;SDS011;149;51.094;17.002;2022-08-19T01:02:29;8.83;;;7.97;;
323;SDS011;149;51.094;17.002;2022-08-19T01:04:57;8.60;;;7.83;;
323;SDS011;149;51.094;17.002;2022-08-19T01:07:26;9.33;;;8.43;;
323;SDS011;149;51.094;17.002;2022-08-19T01:10:03;10.10;;;9.30;;
323;SDS011;149;51.094;17.002;2022-08-19T01:12:37;9.80;;;8.90;;
323;SDS011;149;51.094;17.002;2022-08-19T01:15:05;10.63;;;9.37;;
323;SDS011;149;51.094;17.002;2022-08-19T01:17:35;10.53;;;9.50;;
323;SDS011;149;51.094;17.002;2022-08-19T01:20:06;9.33;;;8.47;;
323;SDS011;149;51.094;17.002;2022-08-19T01:22:46;10.17;;;9.13;;
323;SDS011;149;51.094;17.002;2022-08-19T01:25:17;12.07;;;9.80;;
323;SDS011;149;51.094;17.002;2022-08-19T01:27:52;10.57;;;8.30;;
323;SDS011;149;51.094;17.002;2022-08-19T01:30:22;9.37;;;8.47;;
323;SDS011;149;51.094;17.002;2022-08-19T01:32:59;9.50;;;8.23;;
323;SDS011;149;51.094;17.002;2022-08-19T01:35:27;8.60;;;7.80;;
323;SDS011;149;51.094;17.002;2022-08-19T01:37:57;12.00;;;8.47;;
323;SDS011;149;51.094;17.002;2022-08-19T01:40:27;9.67;;;8.70;;
323;SDS011;149;51.094;17.002;2022-08-19T01:42:58;13.00;;;8.90;;
323;SDS011;149;51.094;17.002;2022-08-19T01:45:26;9.70;;;8.83;;
323;SDS011;149;51.094;17.002;2022-08-19T01:47:56;9.60;;;8.70;;
323;SDS011;149;51.094;17.002;2022-08-19T01:50:27;9.53;;;8.57;;
323;SDS011;149;51.094;17.002;2022-08-19T01:52:56;15.57;;;10.30;;
323;SDS011;149;51.094;17.002;2022-08-19T01:55:28;8.20;;;7.50;;
323;SDS011;149;51.094;17.002;2022-08-19T01:57:58;7.80;;;7.10;;
323;SDS011;149;51.094;17.002;2022-08-19T02:00:30;11.70;;;8.93;;
323;SDS011;149;51.094;17.002;2022-08-19T02:02:58;8.93;;;8.10;;
323;SDS011;149;51.094;17.002;2022-08-19T02:05:26;9.40;;;8.50;;
323;SDS011;149;51.094;17.002;2022-08-19T02:07:55;10.13;;;9.23;;
323;SDS011;149;51.094;17.002;2022-08-19T02:10:23;10.40;;;9.30;;
323;SDS011;149;51.094;17.002;2022-08-19T02:12:52;9.83;;;8.80;;
323;SDS011;149;51.094;17.002;2022-08-19T02:15:20;9.67;;;8.77;;
323;SDS011;149;51.094;17.002;2022-08-19T02:17:48;9.33;;;8.43;;
323;SDS011;149;51.094;17.002;2022-08-19T02:20:15;10.60;;;9.53;;
323;SDS011;149;51.094;17.002;2022-08-19T02:22:43;9.00;;;8.13;;
323;SDS011;149;51.094;17.002;2022-08-19T02:25:13;10.07;;;9.13;;
323;SDS011;149;51.094;17.002;2022-08-19T02:27:41;8.83;;;8.00;;
323;SDS011;149;51.094;17.002;2022-08-19T02:30:11;10.67;;;9.23;;
323;SDS011;149;51.094;17.002;2022-08-19T02:32:42;10.40;;;9.23;;
323;SDS011;149;51.094;17.002;2022-08-19T02:35:11;9.90;;;8.90;;
323;SDS011;149;51.094;17.002;2022-08-19T02:37:40;10.50;;;9.60;;
323;SDS011;149;51.094;17.002;2022-08-19T02:40:27;10.73;;;9.63;;
323;SDS011;149;51.094;17.002;2022-08-19T02:42:56;10.77;;;9.43;;
323;SDS011;149;51.094;17.002;2022-08-19T02:45:23;9.33;;;8.53;;
323;SDS011;149;51.094;17.002;2022-08-19T02:47:50;9.30;;;8.40;;
323;SDS011;149;51.094;17.002;2022-08-19T02:50:17;10.07;;;9.10;;
323;SDS011;149;51.094;17.002;2022-08-19T02:52:45;10.30;;;9.30;;
323;SDS011;149;51.094;17.002;2022-08-19T02:55:15;10.40;;;9.37;;
323;SDS011;149;51.094;17.002;2022-08-19T02:57:42;11.93;;;10.77;;
323;SDS011;149;51.094;17.002;2022-08-19T03:00:09;9.80;;;8.80;;
323;SDS011;149;51.094;17.002;2022-08-19T03:02:40;10.00;;;9.10;;
323;SDS011;149;51.094;17.002;2022-08-19T03:05:07;10.47;;;9.17;;
323;SDS011;149;51.094;17.002;2022-08-19T03:07:36;11.00;;;10.00;;
323;SDS011;149;51.094;17.002;2022-08-19T03:10:04;13.87;;;11.50;;
323;SDS011;149;51.094;17.002;2022-08-19T03:12:34;9.70;;;8.40;;
323;SDS011;149;51.094;17.002;2022-08-19T03:15:04;12.50;;;10.57;;
323;SDS011;149;51.094;17.002;2022-08-19T03:17:34;11.47;;;9.37;;
323;SDS011;149;51.094;17.002;2022-08-19T03:20:02;12.57;;;11.37;;
323;SDS011;149;51.094;17.002;2022-08-19T03:22:30;12.17;;;10.70;;
323;SDS011;149;51.094;17.002;2022-08-19T03:24:57;10.00;;;9.00;;
323;SDS011;149;51.094;17.002;2022-08-19T03:27:25;11.10;;;9.50;;
323;SDS011;149;51.094;17.002;2022-08-19T03:29:59;10.33;;;9.33;;
323;SDS011;149;51.094;17.002;2022-08-19T03:32:26;11.97;;;10.47;;
323;SDS011;149;51.094;17.002;2022-08-19T03:34:58;12.90;;;11.47;;
323;SDS011;149;51.094;17.002;2022-08-19T03:37:27;14.23;;;10.67;;
323;SDS011;149;51.094;17.002;2022-08-19T03:39:54;11.27;;;9.73;;
323;SDS011;149;51.094;17.002;2022-08-19T03:42:21;14.20;;;10.37;;
323;SDS011;149;51.094;17.002;2022-08-19T03:45:10;12.43;;;11.10;;
323;SDS011;149;51.094;17.002;2022-08-19T03:47:37;12.30;;;11.20;;
323;SDS011;149;51.094;17.002;2022-08-19T03:50:04;17.87;;;9.70;;
323;SDS011;149;51.094;17.002;2022-08-19T03:52:32;12.03;;;9.60;;
323;SDS011;149;51.094;17.002;2022-08-19T03:54:58;12.20;;;11.00;;
323;SDS011;149;51.094;17.002;2022-08-19T03:57:26;11.07;;;9.97;;
323;SDS011;149;51.094;17.002;2022-08-19T03:59:57;11.13;;;10.13;;
323;SDS011;149;51.094;17.002;2022-08-19T04:02:38;11.63;;;10.53;;
323;SDS011;149;51.094;17.002;2022-08-19T04:05:07;10.80;;;9.70;;
323;SDS011;149;51.094;17.002;2022-08-19T04:07:34;12.47;;;10.83;;
323;SDS011;149;51.094;17.002;2022-08-19T04:10:02;12.20;;;10.33;;
323;SDS011;149;51.094;17.002;2022-08-19T04:12:29;12.47;;;10.97;;
323;SDS011;149;51.094;17.002;2022-08-19T04:15:00;13.80;;;11.30;;
323;SDS011;149;51.094;17.002;2022-08-19T04:17:29;12.20;;;10.90;;
323;SDS011;149;51.094;17.002;2022-08-19T04:20:07;11.83;;;10.63;;
323;SDS011;149;51.094;17.002;2022-08-19T04:22:34;12.20;;;10.97;;
323;SDS011;149;51.094;17.002;2022-08-19T04:25:01;12.73;;;10.67;;
323;SDS011;149;51.094;17.002;2022-08-19T04:27:30;14.13;;;12.77;;
323;SDS011;149;51.094;17.002;2022-08-19T04:29:59;14.00;;;10.40;;
323;SDS011;149;51.094;17.002;2022-08-19T04:32:26;12.10;;;10.30;;
323;SDS011;149;51.094;17.002;2022-08-19T04:34:53;14.00;;;12.70;;
323;SDS011;149;51.094;17.002;2022-08-19T04:37:41;12.10;;;10.77;;
323;SDS011;149;51.094;17.002;2022-08-19T04:40:08;13.73;;;11.53;;
323;SDS011;149;51.094;17.002;2022-08-19T04:42:59;12.40;;;11.23;;
323;SDS011;149;51.094;17.002;2022-08-19T04:45:27;13.60;;;11.80;;
323;SDS011;149;51.094;17.002;2022-08-19T04:48:05;13.30;;;11.93;;
323;SDS011;149;51.094;17.002;2022-08-19T04:50:52;14.17;;;12.73;;
323;SDS011;149;51.094;17.002;2022-08-19T04:53:29;14.47;;;12.43;;
323;SDS011;149;51.094;17.002;2022-08-19T04:56:04;13.13;;;10.90;;
323;SDS011;149;51.094;17.002;2022-08-19T04:58:36;17.20;;;11.17;;
323;SDS011;149;51.094;17.002;2022-08-19T05:01:04;12.90;;;11.60;;
323;SDS011;149;51.094;17.002;2022-08-19T05:03:31;15.57;;;12.10;;
323;SDS011;149;51.094;17.002;2022-08-19T05:06:04;11.70;;;10.60;;
323;SDS011;149;51.094;17.002;2022-08-19T05:08:37;12.33;;;11.10;;
323;SDS011;149;51.094;17.002;2022-08-19T05:11:14;13.00;;;11.63;;
323;SDS011;149;51.094;17.002;2022-08-19T05:13:52;17.30;;;13.40;;
323;SDS011;149;51.094;17.002;2022-08-19T05:16:19;15.67;;;12.73;;
323;SDS011;149;51.094;17.002;2022-08-19T05:18:49;18.37;;;11.63;;
323;SDS011;149;51.094;17.002;2022-08-19T05:21:34;16.80;;;13.40;;
323;SDS011;149;51.094;17.002;2022-08-19T05:24:22;13.10;;;11.97;;
323;SDS011;149;51.094;17.002;2022-08-19T05:26:51;14.10;;;12.23;;
323;SDS011;149;51.094;17.002;2022-08-19T05:29:23;23.07;;;12.97;;
323;SDS011;149;51.094;17.002;2022-08-19T05:31:58;14.20;;;12.10;;
323;SDS011;149;51.094;17.002;2022-08-19T05:34:29;21.47;;;13.10;;
323;SDS011;149;51.094;17.002;2022-08-19T05:36:56;14.33;;;11.60;;
323;SDS011;149;51.094;17.002;2022-08-19T05:39:28;13.90;;;12.60;;
323;SDS011;149;51.094;17.002;2022-08-19T05:41:59;13.23;;;11.93;;
323;SDS011;149;51.094;17.002;2022-08-19T05:44:30;21.23;;;12.50;;
323;SDS011;149;51.094;17.002;2022-08-19T05:46:59;13.87;;;12.47;;
323;SDS011;149;51.094;17.002;2022-08-19T05:49:28;14.77;;;13.37;;
323;SDS011;149;51.094;17.002;2022-08-19T05:51:55;21.30;;;15.00;;
323;SDS011;149;51.094;17.002;2022-08-19T05:54:23;13.40;;;12.10;;
323;SDS011;149;51.094;17.002;2022-08-19T05:56:50;14.60;;;13.40;;
323;SDS011;149;51.094;17.002;2022-08-19T05:59:19;15.30;;;13.73;;
323;SDS011;149;51.094;17.002;2022-08-19T06:01:52;16.10;;;14.10;;
323;SDS011;149;51.094;17.002;2022-08-19T06:04:23;15.47;;;12.20;;
323;SDS011;149;51.094;17.002;2022-08-19T06:06:51;14.00;;;12.70;;
323;SDS011;149;51.094;17.002;2022-08-19T06:09:20;14.40;;;13.10;;
323;SDS011;149;51.094;17.002;2022-08-19T06:11:55;13.73;;;12.37;;
323;SDS011;149;51.094;17.002;2022-08-19T06:14:29;14.70;;;11.63;;
323;SDS011;149;51.094;17.002;2022-08-19T06:17:05;13.93;;;12.53;;
323;SDS011;149;51.094;17.002;2022-08-19T06:19:32;12.13;;;10.73;;
323;SDS011;149;51.094;17.002;2022-08-19T06:22:06;13.13;;;11.93;;
323;SDS011;149;51.094;17.002;2022-08-19T06:24:33;13.93;;;12.60;;
323;SDS011;149;51.094;17.002;2022-08-19T06:27:03;14.13;;;12.50;;
323;SDS011;149;51.094;17.002;2022-08-19T06:29:32;15.87;;;12.67;;
323;SDS011;149;51.094;17.002;2022-08-19T06:32:00;11.33;;;10.33;;
323;SDS011;149;51.094;17.002;2022-08-19T06:34:30;13.60;;;11.70;;
323;SDS011;149;51.094;17.002;2022-08-19T06:37:02;17.90;;;12.43;;
323;SDS011;149;51.094;17.002;2022-08-19T06:39:36;12.57;;;11.37;;
323;SDS011;149;51.094;17.002;2022-08-19T06:42:05;13.07;;;11.77;;
323;SDS011;149;51.094;17.002;2022-08-19T06:44:36;12.20;;;11.10;;
323;SDS011;149;51.094;17.002;2022-08-19T06:47:09;12.00;;;10.90;;
323;SDS011;149;51.094;17.002;2022-08-19T06:49:48;11.97;;;10.53;;
323;SDS011;149;51.094;17.002;2022-08-19T06:52:15;12.40;;;11.20;;
323;SDS011;149;51.094;17.002;2022-08-19T06:54:42;10.87;;;9.87;;
323;SDS011;149;51.094;17.002;2022-08-19T06:57:22;10.67;;;9.27;;
323;SDS011;149;51.094;17.002;2022-08-19T06:59:50;12.70;;;9.90;;
323;SDS011;149;51.094;17.002;2022-08-19T07:02:18;10.87;;;9.83;;
323;SDS011;149;51.094;17.002;2022-08-19T07:04:47;10.47;;;9.47;;
323;SDS011;149;51.094;17.002;2022-08-19T07:07:18;9.07;;;8.27;;
323;SDS011;149;51.094;17.002;2022-08-19T07:09:47;12.10;;;9.73;;
323;SDS011;149;51.094;17.002;2022-08-19T07:12:23;10.70;;;9.07;;
323;SDS011;149;51.094;17.002;2022-08-19T07:14:51;11.17;;;10.00;;
323;SDS011;149;51.094;17.002;2022-08-19T07:17:19;10.10;;;9.20;;
323;SDS011;149;51.094;17.002;2022-08-19T07:19:46;8.80;;;8.10;;
323;SDS011;149;51.094;17.002;2022-08-19T07:22:14;10.90;;;8.80;;
323;SDS011;149;51.094;17.002;2022-08-19T07:24:42;9.20;;;8.10;;
323;SDS011;149;51.094;17.002;2022-08-19T07:27:16;8.40;;;7.60;;
323;SDS011;149;51.094;17.002;2022-08-19T07:29:50;8.33;;;7.63;;
323;SDS011;149;51.094;17.002;2022-08-19T07:32:22;8.73;;;7.83;;
323;SDS011;149;51.094;17.002;2022-08-19T07:34:53;15.83;;;9.33;;
323;SDS011;149;51.094;17.002;2022-08-19T07:37:22;10.27;;;7.60;;
323;SDS011;149;51.094;17.002;2022-08-19T07:39:53;9.40;;;7.80;;
323;SDS011;149;51.094;17.002;2022-08-19T07:42:20;8.43;;;7.37;;
323;SDS011;149;51.094;17.002;2022-08-19T07:44:47;7.87;;;7.07;;
323;SDS011;149;51.094;17.002;2022-08-19T07:47:16;7.40;;;6.90;;
323;SDS011;149;51.094;17.002;2022-08-19T07:50:05;8.20;;;7.40;;
323;SDS011;149;51.094;17.002;2022-08-19T07:52:33;7.73;;;6.70;;
323;SDS011;149;51.094;17.002;2022-08-19T07:55:03;13.77;;;7.47;;
323;SDS011;149;51.094;17.002;2022-08-19T07:57:30;8.03;;;6.83;;
323;SDS011;149;51.094;17.002;2022-08-19T07:59:58;9.40;;;7.70;;
323;SDS011;149;51.094;17.002;2022-08-19T08:02:25;9.53;;;6.57;;
323;SDS011;149;51.094;17.002;2022-08-19T08:04:52;6.60;;;6.00;;
323;SDS011;149;51.094;17.002;2022-08-19T08:07:38;7.93;;;7.13;;
323;SDS011;149;51.094;17.002;2022-08-19T08:10:24;7.37;;;6.87;;
323;SDS011;149;51.094;17.002;2022-08-19T08:12:52;6.57;;;6.07;;
323;SDS011;149;51.094;17.002;2022-08-19T08:15:35;7.97;;;7.13;;
323;SDS011;149;51.094;17.002;2022-08-19T08:18:08;8.90;;;8.20;;
323;SDS011;149;51.094;17.002;2022-08-19T08:20:36;7.47;;;6.87;;
323;SDS011;149;51.094;17.002;2022-08-19T08:23:03;7.77;;;7.07;;
323;SDS011;149;51.094;17.002;2022-08-19T08:25:49;9.70;;;7.47;;
323;SDS011;149;51.094;17.002;2022-08-19T08:28:16;7.60;;;7.00;;
323;SDS011;149;51.094;17.002;2022-08-19T08:30:45;9.47;;;7.83;;
323;SDS011;149;51.094;17.002;2022-08-19T08:33:19;9.67;;;6.87;;
323;SDS011;149;51.094;17.002;2022-08-19T08:35:59;7.03;;;6.43;;
323;SDS011;149;51.094;17.002;2022-08-19T08:38:29;6.60;;;6.00;;
323;SDS011;149;51.094;17.002;2022-08-19T08:41:07;9.60;;;7.83;;
323;SDS011;149;51.094;17.002;2022-08-19T08:43:48;8.27;;;6.87;;
323;SDS011;149;51.094;17.002;2022-08-19T08:46:32;7.10;;;6.50;;
323;SDS011;149;51.094;17.002;2022-08-19T08:49:18;8.03;;;7.33;;
323;SDS011;149;51.094;17.002;2022-08-19T08:52:00;8.30;;;7.60;;
323;SDS011;149;51.094;17.002;2022-08-19T08:54:36;9.57;;;7.33;;
323;SDS011;149;51.094;17.002;2022-08-19T09:00:25;7.57;;;6.87;;
323;SDS011;149;51.094;17.002;2022-08-19T09:02:55;8.50;;;7.70;;
323;SDS011;149;51.094;17.002;2022-08-19T09:05:26;7.70;;;7.10;;
323;SDS011;149;51.094;17.002;2022-08-19T09:08:16;8.07;;;6.40;;
323;SDS011;149;51.094;17.002;2022-08-19T09:10:54;7.93;;;7.20;;
323;SDS011;149;51.094;17.002;2022-08-19T09:13:44;8.93;;;5.80;;
323;SDS011;149;51.094;17.002;2022-08-19T09:16:28;7.10;;;6.40;;
323;SDS011;149;51.094;17.002;2022-08-19T09:18:58;7.10;;;6.50;;
323;SDS011;149;51.094;17.002;2022-08-19T09:21:31;7.10;;;6.40;;
323;SDS011;149;51.094;17.002;2022-08-19T09:23:59;10.10;;;6.80;;
323;SDS011;149;51.094;17.002;2022-08-19T09:26:28;7.60;;;6.90;;
323;SDS011;149;51.094;17.002;2022-08-19T09:29:16;6.40;;;5.90;;
323;SDS011;149;51.094;17.002;2022-08-19T09:31:43;6.40;;;5.80;;
323;SDS011;149;51.094;17.002;2022-08-19T09:34:10;7.40;;;6.80;;
323;SDS011;149;51.094;17.002;2022-08-19T09:36:47;7.30;;;6.60;;
323;SDS011;149;51.094;17.002;2022-08-19T09:39:18;9.40;;;6.10;;
323;SDS011;149;51.094;17.002;2022-08-19T09:41:45;5.27;;;4.87;;
323;SDS011;149;51.094;17.002;2022-08-19T09:44:14;8.50;;;7.70;;
323;SDS011;149;51.094;17.002;2022-08-19T09:46:43;7.57;;;6.67;;
323;SDS011;149;51.094;17.002;2022-08-19T09:49:10;7.50;;;6.63;;
323;SDS011;149;51.094;17.002;2022-08-19T09:51:38;7.93;;;6.47;;
323;SDS011;149;51.094;17.002;2022-08-19T09:54:06;9.23;;;6.30;;
323;SDS011;149;51.094;17.002;2022-08-19T09:56:36;6.43;;;5.80;;
323;SDS011;149;51.094;17.002;2022-08-19T09:59:03;8.23;;;6.13;;
323;SDS011;149;51.094;17.002;2022-08-19T10:01:31;6.90;;;6.30;;
323;SDS011;149;51.094;17.002;2022-08-19T10:03:59;6.40;;;5.90;;
323;SDS011;149;51.094;17.002;2022-08-19T10:06:39;6.30;;;5.80;;
323;SDS011;149;51.094;17.002;2022-08-19T10:09:12;6.90;;;6.03;;
323;SDS011;149;51.094;17.002;2022-08-19T10:11:40;7.40;;;6.80;;
323;SDS011;149;51.094;17.002;2022-08-19T10:14:19;7.60;;;6.40;;
323;SDS011;149;51.094;17.002;2022-08-19T10:16:48;8.67;;;7.87;;
323;SDS011;149;51.094;17.002;2022-08-19T10:19:18;7.20;;;6.67;;
323;SDS011;149;51.094;17.002;2022-08-19T10:21:51;8.17;;;6.30;;
323;SDS011;149;51.094;17.002;2022-08-19T10:24:19;8.30;;;6.50;;
323;SDS011;149;51.094;17.002;2022-08-19T10:26:46;10.10;;;6.60;;
323;SDS011;149;51.094;17.002;2022-08-19T10:29:24;6.80;;;6.10;;
323;SDS011;149;51.094;17.002;2022-08-19T10:32:01;5.70;;;5.20;;
323;SDS011;149;51.094;17.002;2022-08-19T10:34:38;21.63;;;6.60;;
323;SDS011;149;51.094;17.002;2022-08-19T10:37:14;6.10;;;5.70;;
323;SDS011;149;51.094;17.002;2022-08-19T10:39:54;5.37;;;4.97;;
323;SDS011;149;51.094;17.002;2022-08-19T10:42:21;5.90;;;5.40;;
323;SDS011;149;51.094;17.002;2022-08-19T10:44:48;5.87;;;5.37;;
323;SDS011;149;51.094;17.002;2022-08-19T10:47:17;6.30;;;5.70;;
323;SDS011;149;51.094;17.002;2022-08-19T10:49:51;5.50;;;5.03;;
323;SDS011;149;51.094;17.002;2022-08-19T10:52:39;7.00;;;5.30;;
323;SDS011;149;51.094;17.002;2022-08-19T10:55:15;9.37;;;5.47;;
323;SDS011;149;51.094;17.002;2022-08-19T10:58:09;7.20;;;6.50;;
323;SDS011;149;51.094;17.002;2022-08-19T11:00:39;7.60;;;5.87;;
323;SDS011;149;51.094;17.002;2022-08-19T11:03:06;6.40;;;4.97;;
323;SDS011;149;51.094;17.002;2022-08-19T11:05:34;7.20;;;5.80;;
323;SDS011;149;51.094;17.002;2022-08-19T11:08:05;5.60;;;5.20;;
323;SDS011;149;51.094;17.002;2022-08-19T11:10:48;6.20;;;5.70;;
323;SDS011;149;51.094;17.002;2022-08-19T11:13:15;5.90;;;5.17;;
323;SDS011;149;51.094;17.002;2022-08-19T11:15:42;9.17;;;5.90;;
323;SDS011;149;51.094;17.002;2022-08-19T11:18:13;6.47;;;5.77;;
323;SDS011;149;51.094;17.002;2022-08-19T11:20:40;6.40;;;5.00;;
323;SDS011;149;51.094;17.002;2022-08-19T11:23:07;11.47;;;5.53;;
323;SDS011;149;51.094;17.002;2022-08-19T11:25:34;5.30;;;4.80;;
323;SDS011;149;51.094;17.002;2022-08-19T11:28:04;6.27;;;5.77;;
323;SDS011;149;51.094;17.002;2022-08-19T11:30:32;6.97;;;5.27;;
323;SDS011;149;51.094;17.002;2022-08-19T11:32:59;5.20;;;4.70;;
323;SDS011;149;51.094;17.002;2022-08-19T11:35:27;5.00;;;4.50;;
323;SDS011;149;51.094;17.002;2022-08-19T11:37:56;5.10;;;4.70;;
323;SDS011;149;51.094;17.002;2022-08-19T11:40:27;7.20;;;4.50;;
323;SDS011;149;51.094;17.002;2022-08-19T11:42:55;4.33;;;3.93;;
323;SDS011;149;51.094;17.002;2022-08-19T11:45:23;3.57;;;3.37;;
323;SDS011;149;51.094;17.002;2022-08-19T11:47:52;5.73;;;4.77;;
323;SDS011;149;51.094;17.002;2022-08-19T11:50:20;6.10;;;3.70;;
323;SDS011;149;51.094;17.002;2022-08-19T11:52:47;4.00;;;3.70;;
323;SDS011;149;51.094;17.002;2022-08-19T11:55:15;5.63;;;3.80;;
323;SDS011;149;51.094;17.002;2022-08-19T11:57:43;3.90;;;3.50;;
323;SDS011;149;51.094;17.002;2022-08-19T12:00:10;7.20;;;4.20;;
323;SDS011;149;51.094;17.002;2022-08-19T12:02:39;4.03;;;3.73;;
323;SDS011;149;51.094;17.002;2022-08-19T12:05:07;8.30;;;3.80;;
323;SDS011;149;51.094;17.002;2022-08-19T12:07:39;5.20;;;4.70;;
323;SDS011;149;51.094;17.002;2022-08-19T12:10:07;3.90;;;3.60;;
323;SDS011;149;51.094;17.002;2022-08-19T12:12:36;4.43;;;4.00;;
323;SDS011;149;51.094;17.002;2022-08-19T12:15:09;4.80;;;3.50;;
323;SDS011;149;51.094;17.002;2022-08-19T12:17:37;3.77;;;3.40;;
323;SDS011;149;51.094;17.002;2022-08-19T12:20:04;5.63;;;3.33;;
323;SDS011;149;51.094;17.002;2022-08-19T12:22:32;4.07;;;3.77;;
323;SDS011;149;51.094;17.002;2022-08-19T12:24:59;3.87;;;3.57;;
323;SDS011;149;51.094;17.002;2022-08-19T12:27:27;4.67;;;4.17;;
323;SDS011;149;51.094;17.002;2022-08-19T12:30:07;6.03;;;4.20;;
323;SDS011;149;51.094;17.002;2022-08-19T12:32:37;5.10;;;4.50;;
323;SDS011;149;51.094;17.002;2022-08-19T12:35:04;4.00;;;3.70;;
323;SDS011;149;51.094;17.002;2022-08-19T12:37:33;10.73;;;4.70;;
323;SDS011;149;51.094;17.002;2022-08-19T12:40:00;4.33;;;4.03;;
323;SDS011;149;51.094;17.002;2022-08-19T12:42:29;6.17;;;4.30;;
323;SDS011;149;51.094;17.002;2022-08-19T12:44:57;5.60;;;4.60;;
323;SDS011;149;51.094;17.002;2022-08-19T12:47:24;4.90;;;4.50;;
323;SDS011;149;51.094;17.002;2022-08-19T12:49:52;6.17;;;3.70;;
323;SDS011;149;51.094;17.002;2022-08-19T12:52:24;2.80;;;2.60;;
323;SDS011;149;51.094;17.002;2022-08-19T12:54:54;3.80;;;3.40;;
323;SDS011;149;51.094;17.002;2022-08-19T12:57:23;4.07;;;3.77;;
323;SDS011;149;51.094;17.002;2022-08-19T12:59:58;6.63;;;3.80;;
323;SDS011;149;51.094;17.002;2022-08-19T13:02:26;3.57;;;3.30;;
323;SDS011;149;51.094;17.002;2022-08-19T13:04:53;4.50;;;3.80;;
323;SDS011;149;51.094;17.002;2022-08-19T13:07:20;6.23;;;4.37;;
323;SDS011;149;51.094;17.002;2022-08-19T13:09:47;5.50;;;4.23;;
323;SDS011;149;51.094;17.002;2022-08-19T13:12:17;4.27;;;3.87;;
323;SDS011;149;51.094;17.002;2022-08-19T13:14:50;5.57;;;4.33;;
323;SDS011;149;51.094;17.002;2022-08-19T13:17:20;4.17;;;3.20;;
323;SDS011;149;51.094;17.002;2022-08-19T13:19:47;4.60;;;3.70;;
323;SDS011;149;51.094;17.002;2022-08-19T13:22:14;5.23;;;3.37;;
323;SDS011;149;51.094;17.002;2022-08-19T13:24:42;4.50;;;3.10;;
323;SDS011;149;51.094;17.002;2022-08-19T13:27:12;8.80;;;4.03;;
323;SDS011;149;51.094;17.002;2022-08-19T13:29:42;5.43;;;3.50;;
323;SDS011;149;51.094;17.002;2022-08-19T13:32:28;9.97;;;4.30;;
323;SDS011;149;51.094;17.002;2022-08-19T13:35:15;4.10;;;3.13;;
323;SDS011;149;51.094;17.002;2022-08-19T13:37:43;5.87;;;3.87;;
323;SDS011;149;51.094;17.002;2022-08-19T13:40:15;8.83;;;4.20;;
323;SDS011;149;51.094;17.002;2022-08-19T13:42:50;3.53;;;2.97;;
323;SDS011;149;51.094;17.002;2022-08-19T13:45:22;4.90;;;3.83;;
323;SDS011;149;51.094;17.002;2022-08-19T13:47:51;4.80;;;4.20;;
323;SDS011;149;51.094;17.002;2022-08-19T13:50:27;4.33;;;3.70;;
323;SDS011;149;51.094;17.002;2022-08-19T13:52:57;9.90;;;3.87;;
323;SDS011;149;51.094;17.002;2022-08-19T13:55:24;6.83;;;3.83;;
323;SDS011;149;51.094;17.002;2022-08-19T13:57:52;5.57;;;4.33;;
323;SDS011;149;51.094;17.002;2022-08-19T14:00:23;8.53;;;5.03;;
323;SDS011;149;51.094;17.002;2022-08-19T14:02:53;5.57;;;4.03;;
323;SDS011;149;51.094;17.002;2022-08-19T14:05:22;4.40;;;3.97;;
323;SDS011;149;51.094;17.002;2022-08-19T14:07:50;5.93;;;3.67;;
323;SDS011;149;51.094;17.002;2022-08-19T14:10:17;6.17;;;4.00;;
323;SDS011;149;51.094;17.002;2022-08-19T14:12:46;4.60;;;4.20;;
323;SDS011;149;51.094;17.002;2022-08-19T14:15:15;4.23;;;3.90;;
323;SDS011;149;51.094;17.002;2022-08-19T14:17:42;7.80;;;3.90;;
323;SDS011;149;51.094;17.002;2022-08-19T14:20:11;3.70;;;3.40;;
323;SDS011;149;51.094;17.002;2022-08-19T14:22:44;4.50;;;4.20;;
323;SDS011;149;51.094;17.002;2022-08-19T14:25:16;21.93;;;4.63;;
323;SDS011;149;51.094;17.002;2022-08-19T14:27:50;4.87;;;4.40;;
323;SDS011;149;51.094;17.002;2022-08-19T14:30:20;5.07;;;4.23;;
323;SDS011;149;51.094;17.002;2022-08-19T14:32:54;5.20;;;4.70;;
323;SDS011;149;51.094;17.002;2022-08-19T14:35:25;4.83;;;4.20;;
323;SDS011;149;51.094;17.002;2022-08-19T14:37:53;5.77;;;4.80;;
323;SDS011;149;51.094;17.002;2022-08-19T14:40:23;4.30;;;4.00;;
323;SDS011;149;51.094;17.002;2022-08-19T14:42:55;6.63;;;4.10;;
323;SDS011;149;51.094;17.002;2022-08-19T14:45:26;4.23;;;3.80;;
323;SDS011;149;51.094;17.002;2022-08-19T14:47:54;4.40;;;4.00;;
323;SDS011;149;51.094;17.002;2022-08-19T14:50:22;5.53;;;4.87;;
323;SDS011;149;51.094;17.002;2022-08-19T14:52:49;5.63;;;4.47;;
323;SDS011;149;51.094;17.002;2022-08-19T14:55:18;4.13;;;3.70;;
323;SDS011;149;51.094;17.002;2022-08-19T14:57:45;5.13;;;4.73;;
323;SDS011;149;51.094;17.002;2022-08-19T15:00:12;5.33;;;4.80;;
323;SDS011;149;51.094;17.002;2022-08-19T15:02:41;6.43;;;5.57;;
323;SDS011;149;51.094;17.002;2022-08-19T15:05:10;8.47;;;6.00;;
323;SDS011;149;51.094;17.002;2022-08-19T15:07:39;7.07;;;6.37;;
323;SDS011;149;51.094;17.002;2022-08-19T15:10:07;8.83;;;8.03;;
323;SDS011;149;51.094;17.002;2022-08-19T15:12:38;8.60;;;7.70;;
323;SDS011;149;51.094;17.002;2022-08-19T15:15:10;10.93;;;8.27;;
323;SDS011;149;51.094;17.002;2022-08-19T15:17:40;12.13;;;8.53;;
323;SDS011;149;51.094;17.002;2022-08-19T15:20:22;9.53;;;8.47;;
323;SDS011;149;51.094;17.002;2022-08-19T15:22:50;11.40;;;8.73;;
323;SDS011;149;51.094;17.002;2022-08-19T15:25:21;9.07;;;8.30;;
323;SDS011;149;51.094;17.002;2022-08-19T15:27:49;9.93;;;8.93;;
323;SDS011;149;51.094;17.002;2022-08-19T15:30:19;10.40;;;9.50;;
323;SDS011;149;51.094;17.002;2022-08-19T15:32:49;8.73;;;8.00;;
323;SDS011;149;51.094;17.002;2022-08-19T15:35:16;10.27;;;9.30;;
323;SDS011;149;51.094;17.002;2022-08-19T15:37:45;10.47;;;9.30;;
323;SDS011;149;51.094;17.002;2022-08-19T15:40:18;12.07;;;10.77;;
323;SDS011;149;51.094;17.002;2022-08-19T15:42:49;12.43;;;10.93;;
323;SDS011;149;51.094;17.002;2022-08-19T15:45:22;14.83;;;10.47;;
323;SDS011;149;51.094;17.002;2022-08-19T15:48:02;12.00;;;10.90;;